Time;durP1;ratioP1;P1;durP2;ratioP2;P2;SDS_P1;SDS_P2;PMS_P1;PMS_P2;Temp;Humidity;BMP_temperature;BMP_pressure;BME280_temperature;BME280_humidity;BME280_pressure;Samples;Min_cycle;Max_cycle;Signal;HPM_P1;HPM_P2
2023/01/20 00:02:03;;;;;;;;;;;;;;;8.02;92.14;94003.81;5073601;28;1038;-51
2023/01/20 00:04:29;;;;;;;;;;;;;;;7.82;93.15;94011.38;5073487;28;1029;-51
2023/01/20 00:06:55;;;;;;;;;;;;;;;7.93;94.21;94025.28;5073301;28;1314;-51
2023/01/20 00:09:21;;;;;;;;;;;;;;;8.17;94.16;94029.69;5073655;28;1061;-51
2023/01/20 00:11:47;;;;;;;;;;;;;;;8.31;93.44;94046.75;5073535;28;1262;-51
2023/01/20 00:14:13;;;;;;;;;;;;;;;8.32;93.23;94051.09;5073406;28;1038;-51
2023/01/20 00:16:39;;;;;;;;;;;;;;;8.29;93.13;94059.41;5073339;28;1890;-51
2023/01/20 00:19:05;;;;;;;;;;;;;;;8.28;93.14;94079.88;5073340;28;1213;-51
2023/01/20 00:21:33;;;;;;;;;;;;;;;8.43;92.18;94087.19;5073180;28;1276;-51
2023/01/20 00:23:59;;;;;;;;;;;;;;;8.48;90.99;94080.34;5073324;28;1096;-51
2023/01/20 00:26:25;;;;;;;;;;;;;;;8.46;91.13;94073.50;5073410;28;1044;-51
2023/01/20 00:28:53;;;;;;;;;;;;;;;8.60;90.49;94089.59;5073250;28;992;-51
2023/01/20 00:31:20;;;;;;;;;;;;;;;8.58;90.02;94096.94;5073157;28;1120;-51
2023/01/20 00:33:47;;;;;;;;;;;;;;;8.66;90.40;94085.38;5073273;28;995;-51
2023/01/20 00:36:14;;;;;;;;;;;;;;;8.69;90.17;94084.19;5075469;28;1913;-51
2023/01/20 00:38:40;;;;;;;;;;;;;;;8.48;90.99;94088.34;5077279;28;1112;-51
2023/01/20 00:41:06;;;;;;;;;;;;;;;8.44;92.43;94088.84;5077471;28;1050;-51
2023/01/20 00:43:32;;;;;;;;;;;;;;;8.39;92.08;94092.81;5077356;28;1021;-51
2023/01/20 00:45:58;;;;;;;;;;;;;;;8.39;92.60;94105.31;5077268;28;1021;-51
2023/01/20 00:48:24;;;;;;;;;;;;;;;8.27;93.06;94109.34;5077112;28;1036;-51
2023/01/20 00:50:50;;;;;;;;;;;;;;;8.26;92.96;94108.53;5077083;28;1025;-51
2023/01/20 00:53:16;;;;;;;;;;;;;;;8.25;94.12;94109.50;5077306;28;1033;-51
2023/01/20 00:55:43;;;;;;;;;;;;;;;8.29;93.47;94110.84;5055655;28;1979;-51
2023/01/20 00:58:09;;;;;;;;;;;;;;;8.34;93.26;94119.13;5057127;28;970;-51
2023/01/20 01:00:35;;;;;;;;;;;;;;;8.26;94.36;94102.38;5056900;28;966;-51
2023/01/20 01:03:01;;;;;;;;;;;;;;;8.24;95.30;94099.88;5056873;28;1209;-51
2023/01/20 01:05:27;;;;;;;;;;;;;;;8.21;94.66;94093.09;5056693;28;1656;-51
2023/01/20 01:07:53;;;;;;;;;;;;;;;8.20;95.13;94085.25;5056763;28;1090;-51
2023/01/20 01:10:19;;;;;;;;;;;;;;;8.31;94.39;94092.88;5056704;28;1042;-51
2023/01/20 01:12:45;;;;;;;;;;;;;;;8.26;96.24;94089.88;5056840;28;965;-51
2023/01/20 01:15:12;;;;;;;;;;;;;;;8.26;95.92;94087.22;5056767;28;1071;-51
2023/01/20 01:17:37;;;;;;;;;;;;;;;8.26;95.99;94071.25;5056562;28;1968;-51
2023/01/20 01:20:04;;;;;;;;;;;;;;;8.29;95.80;94078.91;5056570;28;1045;-51
2023/01/20 01:22:31;;;;;;;;;;;;;;;8.35;94.80;94077.38;5056690;28;1041;-51
2023/01/20 01:24:57;;;;;;;;;;;;;;;8.41;94.42;94068.69;5056621;28;1025;-51
2023/01/20 01:27:23;;;;;;;;;;;;;;;8.47;94.38;94061.88;5056332;28;1082;-51
2023/01/20 01:29:49;;;;;;;;;;;;;;;8.60;94.19;94068.28;5055120;28;1217;-51
2023/01/20 01:32:15;;;;;;;;;;;;;;;8.73;93.51;94064.22;5056311;28;1190;-51
2023/01/20 01:34:41;;;;;;;;;;;;;;;8.87;92.53;94060.78;5056142;28;998;-51
2023/01/20 01:37:07;;;;;;;;;;;;;;;8.94;91.95;94060.91;5056345;28;1910;-51
2023/01/20 01:39:33;;;;;;;;;;;;;;;8.97;91.73;94064.06;5055105;28;1023;-51
2023/01/20 01:41:59;;;;;;;;;;;;;;;8.90;91.82;94060.44;5056069;28;1100;-51
2023/01/20 01:44:26;;;;;;;;;;;;;;;8.78;91.73;94056.50;5056074;28;1033;-51
2023/01/20 01:46:52;;;;;;;;;;;;;;;8.75;91.28;94048.88;5056055;28;1045;-51
2023/01/20 01:49:25;;;;;;;;;;;;;;;8.74;91.17;94055.19;5055827;28;1037;-51
2023/01/20 01:51:57;;;;;;;;;;;;;;;8.75;91.29;94051.53;5056189;28;1109;-51
2023/01/20 01:54:25;;;;;;;;;;;;;;;8.74;91.07;94053.34;5056016;28;970;-51
2023/01/20 01:56:51;;;;;;;;;;;;;;;8.68;91.08;94043.41;5071507;28;1913;-51
2023/01/20 01:59:18;;;;;;;;;;;;;;;8.53;91.62;94043.31;5075909;28;1256;-51
2023/01/20 02:01:49;;;;;;;;;;;;;;;8.45;92.31;94042.56;5075684;28;1021;-51
2023/01/20 02:04:16;;;;;;;;;;;;;;;8.51;92.20;94025.88;5076017;28;1056;-51
2023/01/20 02:06:47;;;;;;;;;;;;;;;8.56;92.53;94028.84;5075738;28;1366;-51
2023/01/20 02:09:13;;;;;;;;;;;;;;;8.60;92.16;94022.16;5075860;28;1052;-51
2023/01/20 02:11:44;;;;;;;;;;;;;;;8.71;92.18;94016.41;5075633;28;1056;-51
2023/01/20 02:14:10;;;;;;;;;;;;;;;8.68;92.52;94007.94;5075583;28;976;-51
2023/01/20 02:16:36;;;;;;;;;;;;;;;8.59;92.58;94002.69;5075333;28;1922;-51
2023/01/20 02:19:02;;;;;;;;;;;;;;;8.54;93.13;93993.56;5075451;28;1041;-51
2023/01/20 02:21:34;;;;;;;;;;;;;;;8.60;93.34;93995.50;5075514;28;1041;-51
2023/01/20 02:24:19;;;;;;;;;;;;;;;8.72;92.72;93991.41;5075388;28;1077;-51
2023/01/20 02:27:03;;;;;;;;;;;;;;;8.81;92.25;93983.38;5075286;28;954;-51
2023/01/20 02:29:48;;;;;;;;;;;;;;;8.89;91.64;93981.47;5075436;28;1021;-51
2023/01/20 02:32:24;;;;;;;;;;;;;;;8.90;91.55;93976.97;5075398;28;1052;-51
2023/01/20 02:34:57;;;;;;;;;;;;;;;8.77;92.40;93977.56;5075267;28;990;-51
2023/01/20 02:37:25;;;;;;;;;;;;;;;8.78;92.62;93973.88;5075032;28;1906;-51
2023/01/20 02:40:13;;;;;;;;;;;;;;;8.80;92.95;93969.19;5075245;28;1008;-51
2023/01/20 02:42:46;;;;;;;;;;;;;;;8.79;93.23;93964.91;5074976;28;1025;-51
2023/01/20 02:45:15;;;;;;;;;;;;;;;8.72;94.25;93962.09;5075011;28;1067;-51
2023/01/20 02:47:45;;;;;;;;;;;;;;;8.79;93.61;93954.22;5074838;28;1041;-51
2023/01/20 02:50:17;;;;;;;;;;;;;;;8.79;94.06;93941.72;5074858;28;1088;-51
2023/01/20 02:52:45;;;;;;;;;;;;;;;8.84;94.12;93945.69;5075012;28;985;-51
2023/01/20 02:55:14;;;;;;;;;;;;;;;8.85;93.66;93945.50;5072860;28;1159;-51
2023/01/20 02:57:46;;;;;;;;;;;;;;;8.79;94.31;93944.41;5054336;28;1973;-51
2023/01/20 03:00:16;;;;;;;;;;;;;;;8.78;94.79;93942.75;5054629;28;1025;-51
2023/01/20 03:02:44;;;;;;;;;;;;;;;8.78;94.72;93937.41;5054776;28;961;-51
2023/01/20 03:05:13;;;;;;;;;;;;;;;8.70;95.02;93939.31;5054763;28;978;-51
2023/01/20 03:07:42;;;;;;;;;;;;;;;8.56;96.19;93936.44;5054435;28;1228;-51
2023/01/20 03:10:10;;;;;;;;;;;;;;;8.53;96.70;93926.13;5054599;28;1045;-51
2023/01/20 03:12:36;;;;;;;;;;;;;;;8.60;96.38;93926.25;5054381;28;1071;-51
2023/01/20 03:15:02;;;;;;;;;;;;;;;8.76;95.41;93931.44;5054390;28;981;-51
2023/01/20 03:17:29;;;;;;;;;;;;;;;8.78;95.42;93936.56;5054431;28;1906;-51
2023/01/20 03:19:55;;;;;;;;;;;;;;;8.75;95.96;93931.63;5054476;28;1055;-51
2023/01/20 03:22:21;;;;;;;;;;;;;;;8.64;96.46;93930.19;5054139;28;1258;-51
2023/01/20 03:24:47;;;;;;;;;;;;;;;8.53;96.65;93933.28;5054147;28;1057;-51
2023/01/20 03:27:14;;;;;;;;;;;;;;;8.48;97.31;93919.66;5054198;28;1052;-51
2023/01/20 03:29:40;;;;;;;;;;;;;;;8.61;96.78;93919.88;5053984;28;1014;-51
2023/01/20 03:32:07;;;;;;;;;;;;;;;8.70;96.04;93908.16;5054298;28;1036;-51
2023/01/20 03:34:35;;;;;;;;;;;;;;;8.73;96.07;93915.81;5054105;28;1057;-51
2023/01/20 03:37:02;;;;;;;;;;;;;;;8.79;95.67;93914.25;5053878;28;1934;-51
2023/01/20 03:39:29;;;;;;;;;;;;;;;8.79;95.90;93909.75;5053894;28;1033;-51
2023/01/20 03:41:55;;;;;;;;;;;;;;;8.78;96.17;93924.09;5053869;28;1156;-51
2023/01/20 03:44:21;;;;;;;;;;;;;;;8.83;96.24;93928.06;5053750;28;1140;-51
2023/01/20 03:46:51;;;;;;;;;;;;;;;8.71;96.74;93936.47;5053995;28;1004;-51
2023/01/20 03:49:32;;;;;;;;;;;;;;;8.76;96.59;93926.13;5053981;28;1012;-52
2023/01/20 03:52:16;;;;;;;;;;;;;;;8.75;97.13;93915.63;5053737;28;1062;-51
2023/01/20 03:54:46;;;;;;;;;;;;;;;8.71;97.31;93923.16;5053660;28;1149;-51
2023/01/20 03:57:15;;;;;;;;;;;;;;;8.66;97.28;93919.38;5072646;28;1910;-51
2023/01/20 03:59:43;;;;;;;;;;;;;;;8.63;97.77;93925.03;5073513;28;1049;-51
2023/01/20 04:02:10;;;;;;;;;;;;;;;8.52;98.54;93921.00;5073671;28;1000;-51
2023/01/20 04:04:38;;;;;;;;;;;;;;;8.65;98.04;93923.03;5073565;28;980;-51
2023/01/20 04:07:06;;;;;;;;;;;;;;;8.70;97.81;93929.47;5073349;28;1275;-51
2023/01/20 04:09:35;;;;;;;;;;;;;;;8.72;97.76;93916.81;5072803;28;1045;-51
2023/01/20 04:12:01;;;;;;;;;;;;;;;8.75;97.91;93910.31;5073435;28;978;-51
2023/01/20 04:14:27;;;;;;;;;;;;;;;8.81;97.31;93919.41;5073339;28;1892;-51
2023/01/20 04:16:55;;;;;;;;;;;;;;;8.73;97.70;93939.78;5073326;28;1982;-51
2023/01/20 04:19:22;;;;;;;;;;;;;;;8.57;98.57;93955.91;5055573;28;974;-51
2023/01/20 04:21:51;;;;;;;;;;;;;;;8.54;98.74;93959.75;5073278;28;938;-51
2023/01/20 04:24:32;;;;;;;;;;;;;;;8.40;99.95;93920.53;5073224;28;1026;-51
2023/01/20 04:26:58;;;;;;;;;;;;;;;8.50;100.00;93912.31;5073386;28;953;-51
2023/01/20 04:29:24;;;;;;;;;;;;;;;8.65;99.06;93921.22;5073100;28;1034;-51
2023/01/20 04:31:56;;;;;;;;;;;;;;;8.70;98.54;93920.66;5073155;28;1033;-51
2023/01/20 04:34:22;;;;;;;;;;;;;;;8.68;98.78;93923.50;5073110;28;1012;-51
2023/01/20 04:36:48;;;;;;;;;;;;;;;8.76;98.45;93943.91;5073335;28;1914;-51
2023/01/20 04:39:14;;;;;;;;;;;;;;;8.79;98.14;93947.06;5073351;28;1017;-51
2023/01/20 04:41:40;;;;;;;;;;;;;;;8.62;98.85;93916.22;5073032;28;1973;-51
2023/01/20 04:44:06;;;;;;;;;;;;;;;8.63;96.82;93920.53;5073249;28;1063;-51
2023/01/20 04:46:32;;;;;;;;;;;;;;;8.67;95.04;93910.34;5073006;28;1014;-51
2023/01/20 04:48:58;;;;;;;;;;;;;;;8.71;94.83;93906.34;5073047;28;970;-51
2023/01/20 04:51:24;;;;;;;;;;;;;;;8.75;93.25;93884.47;5072907;28;1259;-51
2023/01/20 04:53:54;;;;;;;;;;;;;;;8.72;94.47;93890.16;5072946;28;1050;-51
2023/01/20 04:56:20;;;;;;;;;;;;;;;8.71;94.64;93885.03;5061358;28;1927;-51
2023/01/20 04:58:47;;;;;;;;;;;;;;;8.57;96.05;93868.84;5053098;28;1210;-51
2023/01/20 05:01:13;;;;;;;;;;;;;;;8.55;96.52;93872.66;5052880;28;1205;-51
2023/01/20 05:03:39;;;;;;;;;;;;;;;8.53;96.63;93869.34;5052744;28;1320;-51
2023/01/20 05:06:05;;;;;;;;;;;;;;;8.37;97.97;93867.63;5052852;28;1101;-51
2023/01/20 05:08:32;;;;;;;;;;;;;;;8.29;98.10;93867.69;5051510;28;1098;-51
2023/01/20 05:10:58;;;;;;;;;;;;;;;8.25;98.44;93869.03;5052967;28;1017;-52
2023/01/20 05:13:24;;;;;;;;;;;;;;;8.21;98.62;93874.75;5052839;28;1069;-51
2023/01/20 05:15:50;;;;;;;;;;;;;;;8.17;99.46;93891.22;5052782;28;2002;-51
2023/01/20 05:18:16;;;;;;;;;;;;;;;8.12;100.00;93883.78;5052749;28;1025;-51
2023/01/20 05:20:45;;;;;;;;;;;;;;;8.05;100.00;93876.69;5052637;28;1855;-51
2023/01/20 05:23:11;;;;;;;;;;;;;;;7.99;100.00;93872.91;5056588;28;973;-51
2023/01/20 05:25:37;;;;;;;;;;;;;;;8.01;100.00;93882.34;5056552;28;1120;-51
2023/01/20 05:28:04;;;;;;;;;;;;;;;8.01;100.00;93887.69;5056428;28;1017;-51
2023/01/20 05:30:30;;;;;;;;;;;;;;;8.12;100.00;93898.91;5056379;28;1284;-51
2023/01/20 05:32:56;;;;;;;;;;;;;;;8.20;100.00;93918.34;5055076;28;974;-51
2023/01/20 05:35:22;;;;;;;;;;;;;;;8.27;100.00;93921.13;5056091;28;1997;-51
2023/01/20 05:37:51;;;;;;;;;;;;;;;8.27;100.00;93929.13;5056432;28;1319;-51
2023/01/20 05:40:17;;;;;;;;;;;;;;;8.33;100.00;93922.25;5056224;28;1089;-51
2023/01/20 05:42:43;;;;;;;;;;;;;;;8.55;100.00;93921.44;5056238;28;1452;-51
2023/01/20 05:45:09;;;;;;;;;;;;;;;8.60;99.37;93915.59;5056151;28;1294;-51
2023/01/20 05:47:35;;;;;;;;;;;;;;;8.59;99.27;93922.75;5055922;28;1057;-51
2023/01/20 05:50:02;;;;;;;;;;;;;;;8.55;99.35;93921.44;5056265;28;1028;-51
2023/01/20 05:52:28;;;;;;;;;;;;;;;8.48;99.51;93925.00;5056135;28;969;-51
2023/01/20 05:54:54;;;;;;;;;;;;;;;8.54;99.33;93914.47;5056002;28;1081;-51
2023/01/20 05:57:22;;;;;;;;;;;;;;;8.67;98.99;93921.84;5075483;28;1988;-52
2023/01/20 05:59:50;;;;;;;;;;;;;;;8.63;98.46;93906.41;5075942;28;1009;-51
2023/01/20 06:02:17;;;;;;;;;;;;;;;8.51;99.60;93895.34;5075730;28;969;-51
2023/01/20 06:04:46;;;;;;;;;;;;;;;8.38;99.40;93894.09;5075997;28;1052;-51
2023/01/20 06:07:13;;;;;;;;;;;;;;;8.32;99.20;93904.63;5075755;28;1105;-51
2023/01/20 06:09:39;;;;;;;;;;;;;;;8.19;100.00;93914.03;5075847;28;1224;-51
2023/01/20 06:12:06;;;;;;;;;;;;;;;8.11;100.00;93918.56;5075789;28;1040;-51
2023/01/20 06:14:31;;;;;;;;;;;;;;;8.16;100.00;93908.22;5075539;28;992;-51
2023/01/20 06:16:57;;;;;;;;;;;;;;;8.27;99.88;93910.50;5075455;28;1993;-51
2023/01/20 06:19:24;;;;;;;;;;;;;;;8.42;99.29;93915.06;5075591;28;955;-51
2023/01/20 06:21:50;;;;;;;;;;;;;;;8.53;98.30;93902.13;5075636;28;1089;-51
2023/01/20 06:24:16;;;;;;;;;;;;;;;8.61;97.51;93914.56;5075564;28;973;-51
2023/01/20 06:26:42;;;;;;;;;;;;;;;8.65;96.92;93915.03;5075242;28;1013;-51
2023/01/20 06:29:08;;;;;;;;;;;;;;;8.68;96.87;93909.34;5075359;28;986;-51
2023/01/20 06:31:34;;;;;;;;;;;;;;;8.59;97.15;93904.09;5075118;28;1021;-51
2023/01/20 06:34:00;;;;;;;;;;;;;;;8.58;97.63;93901.63;5074509;28;974;-51
2023/01/20 06:36:26;;;;;;;;;;;;;;;8.62;97.20;93888.78;5075018;28;2251;-51
2023/01/20 06:38:52;;;;;;;;;;;;;;;8.58;97.15;93888.31;5075202;28;953;-51
2023/01/20 06:41:19;;;;;;;;;;;;;;;8.52;96.65;93876.53;5074948;28;1034;-51
2023/01/20 06:43:45;;;;;;;;;;;;;;;8.41;97.09;93874.25;5057349;28;1012;-51
2023/01/20 06:46:12;;;;;;;;;;;;;;;8.32;98.15;93876.13;5074917;28;969;-51
2023/01/20 06:48:38;;;;;;;;;;;;;;;8.37;98.05;93873.78;5085128;28;1100;-51
2023/01/20 06:51:06;;;;;;;;;;;;;;;8.43;97.63;93871.44;5095262;28;1128;-51
2023/01/20 06:53:32;;;;;;;;;;;;;;;8.49;97.44;93868.88;5094943;28;1112;-51
2023/01/20 06:55:59;;;;;;;;;;;;;;;8.40;97.42;93877.91;5068181;28;1918;-51
2023/01/20 06:58:27;;;;;;;;;;;;;;;8.42;97.47;93883.09;5074632;28;1025;-51
2023/01/20 07:00:53;;;;;;;;;;;;;;;8.40;97.42;93884.09;5074646;28;1037;-51
2023/01/20 07:03:19;;;;;;;;;;;;;;;8.38;97.13;93885.25;5074732;28;958;-51
2023/01/20 07:05:53;;;;;;;;;;;;;;;8.40;97.67;93894.75;5074739;28;1056;-51
2023/01/20 07:08:19;;;;;;;;;;;;;;;8.44;97.35;93905.88;5074335;28;1125;-51
2023/01/20 07:10:46;;;;;;;;;;;;;;;8.62;96.53;93904.75;5074532;28;1055;-51
2023/01/20 07:13:12;;;;;;;;;;;;;;;8.64;95.62;93894.75;5074271;28;1204;-51
2023/01/20 07:15:38;;;;;;;;;;;;;;;8.76;95.60;93901.28;5074447;28;1910;-51
2023/01/20 07:18:04;;;;;;;;;;;;;;;8.86;94.82;93890.34;5074313;28;1058;-51
2023/01/20 07:20:30;;;;;;;;;;;;;;;8.95;93.57;93881.28;5074326;28;974;-51
2023/01/20 07:22:58;;;;;;;;;;;;;;;8.94;94.15;93880.47;5074191;28;1287;-51
2023/01/20 07:25:24;;;;;;;;;;;;;;;8.80;94.19;93875.91;5074179;28;1024;-50
2023/01/20 07:27:50;;;;;;;;;;;;;;;8.71;95.36;93871.72;5074165;28;1068;-51
2023/01/20 07:30:16;;;;;;;;;;;;;;;8.88;94.69;93859.03;5074090;28;1049;-51
2023/01/20 07:32:42;;;;;;;;;;;;;;;9.03;93.81;93856.38;5074202;28;1344;-51
2023/01/20 07:35:09;;;;;;;;;;;;;;;9.11;92.74;93851.78;5074152;28;1047;-51
2023/01/20 07:37:35;;;;;;;;;;;;;;;9.09;92.88;93848.47;5073796;28;1902;-51
2023/01/20 07:40:01;;;;;;;;;;;;;;;8.98;94.02;93840.94;5073957;28;1044;-52
2023/01/20 07:42:27;;;;;;;;;;;;;;;9.03;94.04;93843.03;5073820;28;1020;-51
2023/01/20 07:44:53;;;;;;;;;;;;;;;9.01;95.00;93839.72;5073904;28;1049;-51
2023/01/20 07:47:19;;;;;;;;;;;;;;;8.89;95.16;93848.19;5073897;28;1006;-51
2023/01/20 07:49:45;;;;;;;;;;;;;;;9.05;94.71;93847.19;5073921;28;972;-52
2023/01/20 07:52:11;;;;;;;;;;;;;;;9.12;94.44;93848.09;5073846;28;1017;-52
2023/01/20 07:54:37;;;;;;;;;;;;;;;9.23;93.83;93841.47;5073614;28;2020;-51
2023/01/20 07:57:03;;;;;;;;;;;;;;;9.19;93.49;93843.69;5052995;28;1910;-52
2023/01/20 07:59:29;;;;;;;;;;;;;;;9.25;94.04;93831.44;5073779;28;1040;-52
2023/01/20 08:01:55;;;;;;;;;;;;;;;9.14;94.32;93822.09;5073534;28;1045;-51
2023/01/20 08:04:21;;;;;;;;;;;;;;;9.23;94.91;93827.31;5073635;28;961;-52
2023/01/20 08:06:48;;;;;;;;;;;;;;;9.36;94.51;93835.50;5073031;28;1189;-52
2023/01/20 08:09:14;;;;;;;;;;;;;;;9.48;94.39;93843.84;5073607;28;1085;-52
2023/01/20 08:11:40;;;;;;;;;;;;;;;9.55;94.85;93844.75;5073335;28;1886;-52
2023/01/20 08:14:07;;;;;;;;;;;;;;;9.47;94.83;93848.38;5073381;28;1096;-51
2023/01/20 08:16:33;;;;;;;;;;;;;;;9.32;96.04;93842.22;5073493;28;2361;-52
2023/01/20 08:18:59;;;;;;;;;;;;;;;9.18;96.37;93847.38;5073313;28;1218;-51
2023/01/20 08:21:26;;;;;;;;;;;;;;;9.21;96.52;93850.69;5073391;28;1033;-52
2023/01/20 08:23:53;;;;;;;;;;;;;;;9.19;95.46;93846.34;5073389;28;969;-55
2023/01/20 08:26:20;;;;;;;;;;;;;;;9.26;95.21;93853.59;5073221;28;1048;-51
2023/01/20 08:28:46;;;;;;;;;;;;;;;9.30;95.94;93842.41;5071832;28;1190;-50
2023/01/20 08:31:13;;;;;;;;;;;;;;;9.45;94.68;93847.72;5073456;28;1179;-51
2023/01/20 08:33:41;;;;;;;;;;;;;;;9.66;94.05;93854.97;5073374;28;1017;-51
2023/01/20 08:36:12;;;;;;;;;;;;;;;9.71;94.95;93857.06;5073252;28;1906;-51
2023/01/20 08:38:38;;;;;;;;;;;;;;;9.68;94.85;93854.78;5072990;28;1048;-51
2023/01/20 08:41:08;;;;;;;;;;;;;;;9.63;95.03;93863.31;5073104;28;1077;-51
2023/01/20 08:43:34;;;;;;;;;;;;;;;9.68;94.42;93868.94;5073044;28;1031;-51
2023/01/20 08:46:02;;;;;;;;;;;;;;;9.69;93.89;93859.09;5073284;28;1009;-50
2023/01/20 08:48:28;;;;;;;;;;;;;;;9.74;93.52;93870.84;5072936;28;1096;-51
2023/01/20 08:50:54;;;;;;;;;;;;;;;9.74;93.42;93870.03;5073127;28;1029;-51
2023/01/20 08:53:20;;;;;;;;;;;;;;;9.72;94.79;93864.06;5072997;28;1005;-51
2023/01/20 08:55:53;;;;;;;;;;;;;;;9.72;94.50;93856.88;5065996;28;1992;-51
2023/01/20 08:58:19;;;;;;;;;;;;;;;9.69;94.58;93851.09;5068123;28;1227;-51
2023/01/20 09:00:45;;;;;;;;;;;;;;;9.63;96.12;93855.31;5059405;28;1014;-51
2023/01/20 09:03:11;;;;;;;;;;;;;;;9.60;95.69;93853.03;5059068;28;1050;-51
2023/01/20 09:05:38;;;;;;;;;;;;;;;9.69;95.34;93848.41;5058949;28;1061;-51
2023/01/20 09:08:04;;;;;;;;;;;;;;;9.73;93.44;93849.69;5076471;28;1239;-51
2023/01/20 09:10:33;;;;;;;;;;;;;;;9.74;93.29;93838.81;5076673;28;1507;-51
2023/01/20 09:12:59;;;;;;;;;;;;;;;9.74;93.17;93835.34;5076695;28;1029;-51
2023/01/20 09:15:25;;;;;;;;;;;;;;;9.67;93.37;93837.09;5076738;28;978;-51
2023/01/20 09:17:51;;;;;;;;;;;;;;;9.66;93.92;93836.28;5076237;28;1983;-51
2023/01/20 09:20:17;;;;;;;;;;;;;;;9.69;93.90;93841.22;5076569;28;1022;-51
2023/01/20 09:22:44;;;;;;;;;;;;;;;9.58;95.41;93837.22;5076566;28;1020;-52
2023/01/20 09:25:10;;;;;;;;;;;;;;;9.63;94.31;93838.50;5058713;28;1105;-51
2023/01/20 09:27:36;;;;;;;;;;;;;;;9.63;94.52;93833.16;5076022;28;1113;-51
2023/01/20 09:30:03;;;;;;;;;;;;;;;9.74;92.54;93830.00;5076338;28;1088;-52
2023/01/20 09:32:29;;;;;;;;;;;;;;;9.68;92.88;93838.75;5076300;28;1578;-51
2023/01/20 09:34:55;;;;;;;;;;;;;;;9.61;93.51;93830.66;5058688;28;1583;-51
2023/01/20 09:45:56;;;;;;;;;;;;;;;9.78;92.49;93837.44;5076163;28;1147;-52
2023/01/20 09:54:07;;;;;;;;;;;;;;;9.55;92.86;93836.75;5076001;28;1037;-52
2023/01/20 09:56:38;;;;;;;;;;;;;;;9.56;93.10;93843.72;5057994;28;1902;-52
2023/01/20 09:59:37;;;;;;;;;;;;;;;9.66;91.22;93844.28;5075653;28;1270;-52
2023/01/20 10:02:06;;;;;;;;;;;;;;;9.56;91.61;93860.59;5042205;28;1301;-52
2023/01/20 10:04:44;;;;;;;;;;;;;;;9.49;92.84;93858.84;5075662;28;931;-52
2023/01/20 10:07:19;;;;;;;;;;;;;;;9.33;92.55;93843.88;5075366;28;1191;-52
2023/01/20 10:09:53;;;;;;;;;;;;;;;9.42;90.41;93837.41;5075003;28;2141;-51
2023/01/20 10:12:31;;;;;;;;;;;;;;;9.47;91.32;93840.38;5074436;28;1041;-52
2023/01/20 10:15:06;;;;;;;;;;;;;;;9.34;90.74;93845.53;5075694;28;981;-51
2023/01/20 10:17:42;;;;;;;;;;;;;;;9.35;91.49;93844.50;5075096;28;1988;-52
2023/01/20 10:20:08;;;;;;;;;;;;;;;9.41;92.95;93835.78;5075504;28;1064;-52
2023/01/20 10:22:50;;;;;;;;;;;;;;;9.50;93.22;93834.63;5075473;28;1044;-51
2023/01/20 10:25:16;;;;;;;;;;;;;;;9.48;93.62;93839.34;5075471;28;1053;-51
2023/01/20 10:27:49;;;;;;;;;;;;;;;9.54;93.30;93833.28;5074966;28;1336;-51
2023/01/20 10:30:15;;;;;;;;;;;;;;;9.47;93.70;93832.34;5075262;28;1108;-52
2023/01/20 10:32:47;;;;;;;;;;;;;;;9.44;93.77;93819.38;5075336;28;997;-51
2023/01/20 10:35:16;;;;;;;;;;;;;;;9.41;87.94;93814.44;5075370;28;949;-51
2023/01/20 10:37:42;;;;;;;;;;;;;;;9.38;92.81;93820.97;5074912;28;1910;-52
2023/01/20 10:40:18;;;;;;;;;;;;;;;9.37;90.71;93824.66;5075141;28;1071;-52
2023/01/20 10:42:48;;;;;;;;;;;;;;;9.30;92.56;93815.72;5075010;28;1041;-51
2023/01/20 10:45:18;;;;;;;;;;;;;;;9.41;90.96;93811.78;5075002;28;1037;-52
2023/01/20 10:47:55;;;;;;;;;;;;;;;9.56;89.06;93811.72;5074820;28;1209;-53
2023/01/20 10:50:27;;;;;;;;;;;;;;;9.56;88.90;93809.91;5074777;28;1037;-51
2023/01/20 10:53:16;;;;;;;;;;;;;;;9.53;90.27;93818.25;5074820;28;1191;-51
2023/01/20 10:55:42;;;;;;;;;;;;;;;9.32;90.85;93815.56;5068395;28;1938;-52
2023/01/20 10:58:11;;;;;;;;;;;;;;;9.26;89.66;93819.78;5060775;28;1202;-52
2023/01/20 11:00:38;;;;;;;;;;;;;;;9.37;88.99;93829.13;5074610;28;1018;-52
2023/01/20 11:03:05;;;;;;;;;;;;;;;9.44;87.56;93827.38;5074571;28;1038;-52
2023/01/20 11:05:35;;;;;;;;;;;;;;;9.31;88.37;93819.22;5074485;28;1025;-52
2023/01/20 11:08:02;;;;;;;;;;;;;;;9.13;91.86;93804.44;5074195;28;1255;-52
2023/01/20 11:10:31;;;;;;;;;;;;;;;9.02;94.67;93788.91;5074345;28;1041;-52
2023/01/20 11:12:58;;;;;;;;;;;;;;;9.10;95.69;93795.97;5074581;28;981;-52
2023/01/20 11:15:27;;;;;;;;;;;;;;;9.25;94.92;93794.13;5074299;28;1104;-52
2023/01/20 11:18:11;;;;;;;;;;;;;;;9.33;94.09;93793.19;5073962;28;1902;-52
2023/01/20 11:20:41;;;;;;;;;;;;;;;9.45;91.83;93820.22;5073982;28;1149;-51
2023/01/20 11:23:16;;;;;;;;;;;;;;;9.35;88.73;93833.84;5074463;28;997;-52
2023/01/20 11:25:52;;;;;;;;;;;;;;;9.27;90.20;93836.59;5074328;28;1287;-52
2023/01/20 11:28:18;;;;;;;;;;;;;;;9.24;91.41;93836.97;5056094;28;1180;-51
2023/01/20 11:30:49;;;;;;;;;;;;;;;9.35;90.90;93828.50;5074336;28;1033;-51
2023/01/20 11:33:16;;;;;;;;;;;;;;;9.34;89.75;93835.69;5074197;28;997;-51
2023/01/20 11:36:03;;;;;;;;;;;;;;;9.33;90.07;93834.03;5073932;28;1930;-51
2023/01/20 11:38:30;;;;;;;;;;;;;;;9.36;89.59;93840.84;5073725;28;1219;-52
2023/01/20 11:40:56;;;;;;;;;;;;;;;9.36;90.49;93854.16;5073753;28;1036;-52
2023/01/20 11:43:29;;;;;;;;;;;;;;;9.39;90.36;93864.47;5073781;28;1998;-52
2023/01/20 11:46:18;;;;;;;;;;;;;;;9.43;88.62;93863.09;5073893;28;1013;-52
2023/01/20 11:48:45;;;;;;;;;;;;;;;9.37;88.95;93871.81;5073550;28;1203;-52
2023/01/20 11:51:24;;;;;;;;;;;;;;;9.40;89.86;93876.78;5073609;28;1206;-52
2023/01/20 11:53:50;;;;;;;;;;;;;;;9.42;86.90;93882.75;5073937;28;970;-51
2023/01/20 11:56:19;;;;;;;;;;;;;;;9.38;87.51;93889.50;5072948;28;1913;-51
2023/01/20 11:58:50;;;;;;;;;;;;;;;9.40;87.27;93891.97;5073511;28;1102;-52
2023/01/20 12:01:21;;;;;;;;;;;;;;;9.15;91.15;93900.25;5073556;28;1041;-51
2023/01/20 12:04:23;;;;;;;;;;;;;;;8.99;88.18;93912.75;5073639;28;1157;-51
2023/01/20 12:07:05;;;;;;;;;;;;;;;8.33;88.12;93914.28;5011505;28;1309;-52
2023/01/20 12:09:40;;;;;;;;;;;;;;;8.00;89.33;93917.94;5067608;28;1065;-51
2023/01/20 12:12:06;;;;;;;;;;;;;;;7.96;87.82;93916.66;5073573;28;1223;-52
2023/01/20 12:14:32;;;;;;;;;;;;;;;7.91;87.99;93924.34;5073302;28;1004;-51
2023/01/20 12:17:04;;;;;;;;;;;;;;;7.77;88.70;93920.56;5073551;28;1910;-51
2023/01/20 12:19:43;;;;;;;;;;;;;;;7.87;88.57;93931.00;5073342;28;1108;-51
2023/01/20 12:22:17;;;;;;;;;;;;;;;7.81;88.05;93931.72;5073540;28;1076;-51
2023/01/20 12:25:08;;;;;;;;;;;;;;;7.83;87.83;93932.34;5073390;28;1384;-52
2023/01/20 12:27:35;;;;;;;;;;;;;;;7.79;88.13;93947.03;5073186;28;1182;-52
2023/01/20 12:30:04;;;;;;;;;;;;;;;7.97;87.44;93954.75;5073446;28;938;-51
2023/01/20 12:32:32;;;;;;;;;;;;;;;7.84;87.12;93939.34;5072526;28;1064;-51
2023/01/20 12:34:58;;;;;;;;;;;;;;;7.96;87.45;93953.91;5073236;28;1008;-51
2023/01/20 12:37:37;;;;;;;;;;;;;;;7.83;87.70;93943.00;5072822;28;1918;-51
2023/01/20 12:40:07;;;;;;;;;;;;;;;7.59;89.09;93942.13;5073396;28;1046;-51
2023/01/20 12:42:48;;;;;;;;;;;;;;;7.50;88.99;93929.84;5073253;28;1040;-51
2023/01/20 12:45:17;;;;;;;;;;;;;;;7.58;88.87;93944.94;5073128;28;1034;-51
2023/01/20 12:47:52;;;;;;;;;;;;;;;7.85;90.14;93954.31;5072832;28;1185;-51
2023/01/20 12:50:21;;;;;;;;;;;;;;;8.01;88.24;93953.41;5072966;28;1128;-51
2023/01/20 12:52:47;;;;;;;;;;;;;;;8.14;87.39;93956.31;5073209;28;1092;-51
2023/01/20 12:55:13;;;;;;;;;;;;;;;8.29;87.26;93960.88;5070936;28;1221;-52
2023/01/20 12:57:52;;;;;;;;;;;;;;;8.28;87.80;93968.03;5056878;28;1910;-51
2023/01/20 13:00:18;;;;;;;;;;;;;;;8.34;85.26;93969.19;5055203;28;989;-51
2023/01/20 13:02:59;;;;;;;;;;;;;;;8.43;85.16;93978.81;5072947;28;1030;-51
2023/01/20 13:05:34;;;;;;;;;;;;;;;8.34;84.97;93975.31;5073022;28;1021;-51
2023/01/20 13:08:03;;;;;;;;;;;;;;;8.44;85.10;93977.78;5072595;28;1860;-52
2023/01/20 13:10:41;;;;;;;;;;;;;;;8.38;85.78;93978.47;5072854;28;974;-51
2023/01/20 13:13:10;;;;;;;;;;;;;;;8.45;85.51;93987.44;5072911;28;1037;-52
2023/01/20 13:15:40;;;;;;;;;;;;;;;8.50;85.57;93979.75;5072967;28;981;-51
2023/01/20 13:18:06;;;;;;;;;;;;;;;8.35;84.14;93981.50;5072975;28;1162;-51
2023/01/20 13:20:33;;;;;;;;;;;;;;;8.31;85.51;93983.69;5072565;28;1023;-51
2023/01/20 13:23:01;;;;;;;;;;;;;;;8.20;85.56;93973.44;5072466;28;1032;-51
2023/01/20 13:25:28;;;;;;;;;;;;;;;8.17;85.12;93977.25;5072559;28;1107;-51
2023/01/20 13:27:55;;;;;;;;;;;;;;;8.30;85.16;93973.19;5072622;28;1036;-51
2023/01/20 13:30:38;;;;;;;;;;;;;;;8.44;86.90;93979.63;5072529;28;1026;-51